Etusivu
METAR-TAF:

METAR-TAF

Lentoasemat :

La Crosse, Wisconsin, Yhdysvallat

Leveyspiiri: 43-52-46N, Pituuspiiri: 091-15-24W, korkeus merenpinnasta: 199 m

Tämänhetkinen sää

Tämä raportti tehtiin 23 minuuttia sitten, kello 03.53 UTC
Tuuli 4 kn kaakosta
Lämpötila 18°C
Kosteus 77%
Ilmanpaine 1024 hPa
Näkyvyys: 16.1 km
selkeää

METAR: KLSE 240353Z AUTO 13004KT 10SM CLR 18/14 A3024 RMK AO2 SLP232 T01830139

Aika: 23:16 (04:16 UTC)

Sääennuste

Tämä raportti tehtiin 4 tuntia ja 52 minuuttia sitten, kello 23.24 UTC
Ennuste voimassa 24. päivästä klo 00 UTC - 24. päivään klo 24 UTC
Tuuli 3 kn idästä/kaakosta
Näkyvyys: 10 km
selkeää
From 24. päivästä klo 1600 UTC
Tuuli 6 kn kaakosta
Näkyvyys: 10 km
Hajanaisia pilviä 5000 ft:n korkeudessa

TAF: KLSE 232324Z 2400/2424 11003KT P6SM SKC FM241600 13006KT P6SM SCT050

Säähavainnot ja -ennusteet yli 4000 lentoasemalta (METAR- ja TAF-raportit).

Käytössä olevat sääasemat on merkitty karttaan keltaisilla ja punaisilla pisteillä.

Aseta hiiri pisteen päälle nähdäksesi sääaseman nimen.

Klikkaa sitten nähdäksesi säähavainnot ja -ennusteet.

Kartan vaihtaminen: klikkaa mustalla rastilla varustettuja vihreitä pisteitä, niin voit zoomata sisään; viivalla varustettua vihreää pistettä, niin voit zoomata ulos tai vihreitä nuolia, niin pääset viereisille kartoille.


METAR-TAF: